YKZ weather

Buttonville Municipal Airport
Toronto, Ontario, Canada

Public forecast

Using degrees Celsius for public forecast. Weather courtesy of forecast.io.

METAR (pilot weather report)

Retrieved 2017/10/21 13:00 UTC (36 seconds ago):

CYKZ 211300Z 00000KT 15SM BKN240 10/05 A3026 RMK CI7 SLP250

TAF (pilot weather forecast)

Retrieved 2017/10/21 12:42 UTC (19 minutes ago):

TAF CYKZ 211139Z 2112/2124 VRB03KT P6SM BKN250 FM211500 18004KT P6SM BKN250 BECMG 2116/2118 19011KT RMK NXT FCST BY 211800Z